METAR Data
IDs: Format: Raw Decoded Include TAF

Data at: 2214 UTC 30 Jun 2022

METAR for:KTOC (Toccoa/Lefourneau Fl, GA, US)
Text:KTOC 302155Z AUTO 00000KT 10SM CLR 31/19 A3015 RMK AO2 T03100190
Temperature: 31.0°C ( 88°F)
Dewpoint: 19.0°C ( 66°F) [RH = 49%]
Pressure (altimeter):30.15 inches Hg (1021.1 mb)
Winds:calm
Visibility:10 or more sm (16+ km)
Ceiling:at least 12,000 feet AGL
Clouds:sky clear below 12,000 feet AGL
QC Flag:automated observation with no human augmentation

TAF for:KTOC (Toccoa/Lefourneau Fl, GA, US)
Text:No data found